DTTF/GAF METAR and TAF weather

Enter ICAO airport designator
Station Type Date Time Source
DTTF METAR 2022/01/23 12:00 UTC NOAA

DTTF 231200Z VRB04KT 8000 SCT026 SCT033 14/02 Q1028 NOSIG


Station Type Date Time Source
DTTF Decoded METAR 2022/01/23 12:00 UTC NOAA

Gafsa, Tunisia (DTTF) 34-25N 008-49E 314M
Jan 23, 2022 - 07:00 AM EST / 2022.01.23 1200 UTC
Wind: Variable at 5 MPH (4 KT):0
Visibility: 4 mile(s):0
Sky conditions: partly cloudy
Temperature: 57 F (14 C)
Dew Point: 35 F (2 C)
Relative Humidity: 44%
Pressure (altimeter): 30.36 in. Hg (1028 hPa)
ob: DTTF 231200Z VRB04KT 8000 SCT026 SCT033 14/02 Q1028 NOSIG
cycle: 12

Station Type Date Time Source
DTTF TAF 2022/01/22 16:00 UTC NOAA

TAF DTTF 221800Z 2216/2304 VRB02KT CAVOK

Example: see airport list